Time;durP1;ratioP1;P1;durP2;ratioP2;P2;SDS_P1;SDS_P2;PMS_P1;PMS_P2;Temp;Humidity;BMP_temperature;BMP_pressure;BME280_temperature;BME280_humidity;BME280_pressure;Samples;Min_cycle;Max_cycle;Signal;HPM_P1;HPM_P2
2023/08/20 00:01:13;;;;;;;5.30;3.17;;;27.90;57.30;;;;;;2547622;54;20939;-69
2023/08/20 00:03:41;;;;;;;4.80;2.95;;;27.80;57.30;;;;;;2546670;54;20944;-68
2023/08/20 00:06:07;;;;;;;3.37;2.60;;;27.80;57.30;;;;;;2308399;55;21043;-69
2023/08/20 00:08:34;;;;;;;3.62;2.60;;;27.80;57.40;;;;;;2308099;55;21044;-70
2023/08/20 00:11:01;;;;;;;6.10;2.70;;;27.80;57.50;;;;;;2308514;55;20928;-69
2023/08/20 00:13:28;;;;;;;3.67;2.47;;;27.70;57.40;;;;;;2547369;54;20995;-70
2023/08/20 00:15:54;;;;;;;3.58;2.60;;;27.70;57.50;;;;;;2308497;55;20996;-69
2023/08/20 00:18:21;;;;;;;5.22;3.15;;;27.70;57.50;;;;;;2308439;55;20928;-69
2023/08/20 00:20:48;;;;;;;3.80;2.80;;;27.70;57.60;;;;;;2308526;55;21882;-69
2023/08/20 00:23:15;;;;;;;4.05;2.65;;;27.60;57.50;;;;;;2524263;54;20994;-69
2023/08/20 00:25:43;;;;;;;4.45;2.87;;;27.60;57.50;;;;;;2535682;54;20927;-68
2023/08/20 00:28:10;;;;;;;3.80;2.80;;;27.60;57.60;;;;;;2308817;55;20947;-68
2023/08/20 00:30:36;;;;;;;3.72;2.72;;;27.60;57.60;;;;;;2547038;54;21002;-68
2023/08/20 00:33:03;;;;;;;3.80;2.40;;;27.50;57.70;;;;;;2547418;54;20967;-68
2023/08/20 00:35:29;;;;;;;3.95;2.65;;;27.50;57.80;;;;;;2547158;54;21038;-69
2023/08/20 00:37:57;;;;;;;3.50;2.58;;;27.50;57.80;;;;;;2307946;55;21019;-68
2023/08/20 00:40:23;;;;;;;3.75;2.62;;;27.50;57.80;;;;;;2547527;54;20979;-68
2023/08/20 00:42:51;;;;;;;4.47;2.80;;;27.50;57.90;;;;;;2307239;55;21141;-68
2023/08/20 00:45:19;;;;;;;4.03;2.70;;;27.40;57.90;;;;;;2306596;55;20928;-69
2023/08/20 00:47:45;;;;;;;4.80;2.92;;;27.40;57.90;;;;;;2307918;55;20975;-68
2023/08/20 00:50:11;;;;;;;4.25;2.83;;;27.40;58.00;;;;;;2546921;54;21011;-68
2023/08/20 00:52:39;;;;;;;4.45;2.72;;;27.30;58.00;;;;;;2545413;54;20939;-68
2023/08/20 00:55:12;;;;;;;3.75;2.65;;;27.30;58.00;;;;;;2307614;55;21385;-67
2023/08/20 00:57:39;;;;;;;3.83;2.50;;;27.30;58.10;;;;;;2545574;54;20984;-71
2023/08/20 01:00:10;;;;;;;3.65;2.50;;;27.30;58.10;;;;;;2308624;55;20983;-69
2023/08/20 01:02:37;;;;;;;3.70;2.53;;;27.20;58.00;;;;;;2307715;55;21964;-71
2023/08/20 01:05:06;;;;;;;4.72;2.90;;;27.20;58.00;;;;;;2286719;55;1340801;-69
2023/08/20 01:07:57;;;;;;;3.75;2.45;;;27.20;58.10;;;;;;2547031;54;20968;-68
2023/08/20 01:10:30;;;;;;;3.90;2.72;;;27.20;58.30;;;;;;2510523;54;20991;-70
2023/08/20 01:12:57;;;;;;;4.82;2.70;;;27.20;58.10;;;;;;2546533;54;20960;-67
2023/08/20 01:15:24;;;;;;;4.22;3.10;;;27.10;58.10;;;;;;2547555;54;21744;-68
2023/08/20 01:17:51;;;;;;;3.45;2.70;;;27.10;58.30;;;;;;2307879;55;20982;-69
2023/08/20 01:20:17;;;;;;;4.40;2.72;;;27.10;58.90;;;;;;2547302;54;20968;-69
2023/08/20 01:23:15;;;;;;;4.47;3.35;;;27.10;58.30;;;;;;2308122;55;21846;-70
2023/08/20 01:26:15;;;;;;;3.72;2.80;;;27.00;58.80;;;;;;2284027;55;20967;-70
2023/08/20 01:28:41;;;;;;;5.15;2.85;;;27.00;58.60;;;;;;2546041;54;21403;-71
2023/08/20 01:31:10;;;;;;;4.30;2.78;;;27.00;58.50;;;;;;2547510;54;20960;-69
2023/08/20 01:33:37;;;;;;;4.03;2.70;;;26.90;58.60;;;;;;2308534;55;21951;-68
2023/08/20 01:36:09;;;;;;;4.45;2.97;;;26.90;58.60;;;;;;2308016;55;21031;-68
2023/08/20 01:38:36;;;;;;;6.78;2.70;;;26.90;58.70;;;;;;2546545;54;21000;-70
2023/08/20 01:41:03;;;;;;;3.53;2.50;;;26.90;58.60;;;;;;2546793;54;21298;-70
2023/08/20 01:43:30;;;;;;;4.00;2.78;;;26.90;58.60;;;;;;2308015;55;20924;-70
2023/08/20 01:45:56;;;;;;;3.70;2.42;;;26.80;58.60;;;;;;2307895;55;21430;-73
2023/08/20 01:48:24;;;;;;;5.03;2.80;;;26.80;58.60;;;;;;2546637;54;20940;-69
2023/08/20 01:50:51;;;;;;;4.95;2.53;;;26.80;58.70;;;;;;2546969;54;21231;-71
2023/08/20 01:53:21;;;;;;;3.53;2.53;;;26.70;58.60;;;;;;2546974;54;21739;-70
2023/08/20 01:55:48;;;;;;;4.60;2.60;;;26.70;58.70;;;;;;2306888;55;22335;-72
2023/08/20 01:58:15;;;;;;;4.03;2.65;;;26.70;58.60;;;;;;2307769;55;21751;-73
2023/08/20 02:00:42;;;;;;;4.47;3.15;;;26.70;58.70;;;;;;2509382;54;21797;-69
2023/08/20 02:03:09;;;;;;;4.07;2.80;;;26.60;58.70;;;;;;2307644;55;20971;-70
2023/08/20 02:05:36;;;;;;;4.22;2.97;;;26.60;58.80;;;;;;2307930;55;20955;-71
2023/08/20 02:08:03;;;;;;;6.80;3.10;;;26.60;58.70;;;;;;2308192;55;20992;-70
2023/08/20 02:10:29;;;;;;;4.55;2.95;;;26.60;58.70;;;;;;2308348;55;20940;-71
2023/08/20 02:12:57;;;;;;;3.37;2.50;;;26.60;58.80;;;;;;2546491;54;21614;-70
2023/08/20 02:15:23;;;;;;;3.92;2.42;;;26.50;58.70;;;;;;2546218;54;20940;-69
2023/08/20 02:17:50;;;;;;;4.93;2.37;;;26.50;58.80;;;;;;2301361;55;21799;-70
2023/08/20 02:20:16;;;;;;;5.12;2.58;;;26.50;58.90;;;;;;2290941;55;21499;-70
2023/08/20 02:22:42;;;;;;;5.25;3.03;;;26.40;58.90;;;;;;2306910;55;21754;-70
2023/08/20 02:25:11;;;;;;;4.12;3.17;;;26.40;59.00;;;;;;2303441;55;21017;-71
2023/08/20 02:27:38;;;;;;;4.18;2.90;;;26.40;59.10;;;;;;2266959;55;20991;-69
2023/08/20 02:30:05;;;;;;;3.95;2.60;;;26.40;59.20;;;;;;2308507;55;20986;-71
2023/08/20 02:32:33;;;;;;;4.65;3.10;;;26.30;59.10;;;;;;2546169;54;20944;-73
2023/08/20 02:34:59;;;;;;;6.78;3.45;;;26.30;59.20;;;;;;2546132;54;21954;-70
2023/08/20 02:37:25;;;;;;;5.80;3.33;;;26.30;59.40;;;;;;2546775;54;21508;-69
2023/08/20 02:39:52;;;;;;;4.22;2.70;;;26.30;59.40;;;;;;2547353;54;20984;-71
2023/08/20 02:42:18;;;;;;;4.20;2.90;;;26.30;59.30;;;;;;2545909;54;21679;-70
2023/08/20 02:44:45;;;;;;;4.85;2.67;;;26.30;59.50;;;;;;2308255;55;20951;-72
2023/08/20 02:47:11;;;;;;;3.87;2.58;;;26.30;59.50;;;;;;2546466;54;20960;-69
2023/08/20 02:49:38;;;;;;;5.43;3.60;;;26.30;59.50;;;;;;2546241;54;21386;-73
2023/08/20 02:52:05;;;;;;;4.25;2.92;;;26.20;59.40;;;;;;2547303;54;21020;-71
2023/08/20 02:54:36;;;;;;;4.40;2.42;;;26.20;59.40;;;;;;2307817;55;20983;-71
2023/08/20 02:57:09;;;;;;;4.80;2.72;;;26.20;59.50;;;;;;2547579;54;21694;-71
2023/08/20 02:59:35;;;;;;;4.12;2.70;;;26.20;59.40;;;;;;2307671;55;21003;-70
2023/08/20 03:02:03;;;;;;;4.85;2.70;;;26.10;59.40;;;;;;2547040;54;20960;-70
2023/08/20 03:04:30;;;;;;;4.70;2.78;;;26.10;59.40;;;;;;2512636;55;21518;-68
2023/08/20 03:06:57;;;;;;;4.68;2.92;;;26.10;59.50;;;;;;2513130;55;20942;-67
2023/08/20 03:09:23;;;;;;;3.97;2.55;;;26.10;60.10;;;;;;2514269;55;20989;-68
2023/08/20 03:11:49;;;;;;;3.78;2.62;;;26.10;59.50;;;;;;2273153;56;20992;-70
2023/08/20 03:14:16;;;;;;;4.20;3.20;;;26.10;59.60;;;;;;2499622;54;21883;-67
2023/08/20 03:16:42;;;;;;;4.18;2.95;;;26.00;59.60;;;;;;2282151;56;20946;-72
2023/08/20 03:19:09;;;;;;;4.20;3.12;;;26.00;59.70;;;;;;2283269;56;21027;-73
2023/08/20 03:21:35;;;;;;;4.43;2.47;;;26.00;59.70;;;;;;2282572;56;21446;-71
2023/08/20 03:24:02;;;;;;;3.87;2.70;;;26.00;59.70;;;;;;2515410;55;20954;-71
2023/08/20 03:26:29;;;;;;;4.50;2.97;;;26.00;59.80;;;;;;2282306;55;21845;-71
2023/08/20 03:28:56;;;;;;;4.07;2.78;;;26.00;59.80;;;;;;2515936;55;20898;-70
2023/08/20 03:31:22;;;;;;;5.35;2.67;;;26.00;59.80;;;;;;2514324;55;20983;-72
2023/08/20 03:33:51;;;;;;;3.70;2.50;;;26.00;59.80;;;;;;2514622;55;20970;-68
2023/08/20 03:36:18;;;;;;;5.32;2.97;;;25.90;59.80;;;;;;2282014;55;21503;-67
2023/08/20 03:38:48;;;;;;;4.75;3.35;;;25.90;59.80;;;;;;2505161;54;21006;-71
2023/08/20 03:41:15;;;;;;;4.72;2.90;;;25.90;60.00;;;;;;2516348;55;21267;-72
2023/08/20 03:46:52;;;;;;;4.18;2.62;;;25.90;60.50;;;;;;2514326;55;20970;-68
2023/08/20 03:49:22;;;;;;;4.03;2.62;;;25.90;60.10;;;;;;2515652;55;21042;-70
2023/08/20 03:51:48;;;;;;;4.95;2.97;;;25.90;60.20;;;;;;2282161;55;21791;-69
2023/08/20 03:54:14;;;;;;;4.85;3.15;;;25.90;60.20;;;;;;2282245;56;20970;-67
2023/08/20 03:56:41;;;;;;;4.30;3.10;;;25.80;60.20;;;;;;2514564;54;21043;-68
2023/08/20 03:59:08;;;;;;;5.37;3.55;;;25.80;60.30;;;;;;2288445;56;20958;-68
2023/08/20 04:01:38;;;;;;;5.15;3.25;;;25.90;60.50;;;;;;2515435;55;21044;-70
2023/08/20 04:04:05;;;;;;;4.85;3.12;;;25.90;60.50;;;;;;2282424;55;21014;-70
2023/08/20 04:06:34;;;;;;;4.32;2.80;;;25.80;60.30;;;;;;2515612;55;20928;-67
2023/08/20 04:09:03;;;;;;;4.00;2.72;;;25.80;60.30;;;;;;2266359;55;21080;-67
2023/08/20 04:11:30;;;;;;;4.40;3.30;;;25.80;60.30;;;;;;2523407;54;20979;-68
2023/08/20 04:13:56;;;;;;;5.62;2.92;;;25.80;60.40;;;;;;2552902;54;20951;-68
2023/08/20 04:16:24;;;;;;;4.35;2.80;;;25.80;60.40;;;;;;2313561;55;21007;-71
2023/08/20 04:18:51;;;;;;;3.78;2.58;;;25.80;60.40;;;;;;2312957;55;20963;-70
2023/08/20 04:21:22;;;;;;;4.40;2.97;;;25.80;60.50;;;;;;2554168;54;20975;-69
2023/08/20 04:23:48;;;;;;;3.55;2.42;;;25.80;60.80;;;;;;2553039;54;21047;-68
2023/08/20 04:26:14;;;;;;;5.30;3.12;;;25.80;60.60;;;;;;2314169;55;20967;-69
2023/08/20 04:28:41;;;;;;;4.70;2.90;;;25.80;60.60;;;;;;2312832;55;20926;-69
2023/08/20 04:31:08;;;;;;;4.25;3.12;;;25.70;60.50;;;;;;2283140;55;21508;-68
2023/08/20 04:33:36;;;;;;;5.72;3.92;;;25.70;60.70;;;;;;2532096;54;20932;-68
2023/08/20 04:36:02;;;;;;;4.72;3.70;;;25.70;60.90;;;;;;2553446;54;20967;-68
2023/08/20 04:38:29;;;;;;;4.40;3.33;;;25.70;61.10;;;;;;2313296;55;20944;-69
2023/08/20 04:40:55;;;;;;;3.92;2.97;;;25.70;61.20;;;;;;2552122;54;21797;-69
2023/08/20 04:43:21;;;;;;;4.45;3.17;;;25.70;61.20;;;;;;2552908;54;21372;-68
2023/08/20 04:45:49;;;;;;;5.32;3.00;;;25.70;61.30;;;;;;2312318;55;20936;-69
2023/08/20 04:48:16;;;;;;;4.22;3.00;;;25.80;61.40;;;;;;2553370;54;20983;-70
2023/08/20 04:50:42;;;;;;;4.57;3.08;;;25.70;61.20;;;;;;2313127;55;20995;-69
2023/08/20 04:53:08;;;;;;;4.20;3.10;;;25.70;61.20;;;;;;2312778;55;21341;-72
2023/08/20 04:55:35;;;;;;;5.00;3.22;;;25.80;61.40;;;;;;2522742;54;20949;-70
2023/08/20 04:58:02;;;;;;;4.70;3.37;;;25.80;61.40;;;;;;2311393;55;20939;-69
2023/08/20 05:00:28;;;;;;;6.25;3.10;;;25.80;61.40;;;;;;2313585;55;20991;-68
2023/08/20 05:02:55;;;;;;;4.62;3.03;;;25.80;61.40;;;;;;2542052;54;21545;-70
2023/08/20 05:05:22;;;;;;;4.90;2.95;;;25.80;61.40;;;;;;2295464;55;21840;-69
2023/08/20 05:07:48;;;;;;;4.28;2.87;;;25.80;61.40;;;;;;2313138;55;22038;-70
2023/08/20 05:10:15;;;;;;;4.10;2.72;;;25.80;61.50;;;;;;2553597;54;21465;-69
2023/08/20 05:12:42;;;;;;;4.60;2.92;;;25.80;61.50;;;;;;2298187;56;20933;-68
2023/08/20 05:15:09;;;;;;;4.12;3.08;;;25.90;61.60;;;;;;2306534;55;21795;-70
2023/08/20 05:17:35;;;;;;;4.97;3.30;;;25.90;61.60;;;;;;2313360;55;20916;-68
2023/08/20 05:20:04;;;;;;;5.65;3.03;;;25.90;61.70;;;;;;2313354;55;20979;-70
2023/08/20 05:22:30;;;;;;;4.15;3.10;;;25.90;61.90;;;;;;2553386;54;20960;-70
2023/08/20 05:24:58;;;;;;;3.60;2.95;;;25.90;62.00;;;;;;2313383;55;20916;-69
2023/08/20 05:27:27;;;;;;;4.75;3.00;;;25.90;62.10;;;;;;2313670;55;20944;-68
2023/08/20 05:29:53;;;;;;;4.85;3.00;;;25.90;62.10;;;;;;2313138;55;20931;-68
2023/08/20 05:32:23;;;;;;;4.90;3.05;;;25.90;62.00;;;;;;2549578;54;21476;-69
2023/08/20 05:34:49;;;;;;;3.90;3.05;;;25.90;62.80;;;;;;2495602;54;20920;-68
2023/08/20 05:37:16;;;;;;;4.80;3.08;;;26.00;62.10;;;;;;2310977;55;21038;-68
2023/08/20 05:39:43;;;;;;;5.00;3.25;;;26.00;62.10;;;;;;2312941;55;20964;-69
2023/08/20 05:42:09;;;;;;;5.05;3.65;;;26.00;62.30;;;;;;2314005;55;20991;-69
2023/08/20 05:44:36;;;;;;;4.40;3.37;;;26.00;62.40;;;;;;2552783;54;20931;-68
2023/08/20 05:47:02;;;;;;;5.00;3.72;;;26.00;62.30;;;;;;2313188;55;21469;-67
2023/08/20 05:49:31;;;;;;;5.15;3.60;;;26.10;62.30;;;;;;2313910;55;20955;-69
2023/08/20 05:51:57;;;;;;;4.43;3.28;;;26.10;62.30;;;;;;2306913;55;21033;-69
2023/08/20 05:54:25;;;;;;;3.83;2.72;;;26.10;62.30;;;;;;2501975;55;20963;-69
2023/08/20 05:56:53;;;;;;;4.50;3.08;;;26.10;62.30;;;;;;2524253;54;21284;-69
2023/08/20 05:59:19;;;;;;;4.20;3.17;;;26.20;62.40;;;;;;2313725;55;21447;-69
2023/08/20 06:01:46;;;;;;;4.95;3.58;;;26.20;62.40;;;;;;2536904;54;20981;-69
2023/08/20 06:04:12;;;;;;;4.15;2.90;;;26.20;62.40;;;;;;2300243;55;20964;-67
2023/08/20 06:06:40;;;;;;;5.53;3.12;;;26.20;62.40;;;;;;2313604;55;21424;-71
2023/08/20 06:09:07;;;;;;;4.45;3.08;;;26.30;62.50;;;;;;2313659;55;20904;-69
2023/08/20 06:11:37;;;;;;;8.35;3.22;;;26.30;62.50;;;;;;2532137;54;20953;-67
2023/08/20 06:14:04;;;;;;;4.50;3.22;;;26.30;62.60;;;;;;2304305;55;21015;-67
2023/08/20 06:16:30;;;;;;;4.12;3.30;;;26.30;62.60;;;;;;2313238;55;21067;-68
2023/08/20 06:18:58;;;;;;;5.82;3.30;;;26.30;62.60;;;;;;2313435;55;20983;-68
2023/08/20 06:23:55;;;;;;;5.15;3.10;;;26.30;62.70;;;;;;2526841;53;22860;-71
2023/08/20 06:26:22;;;;;;;4.97;3.47;;;26.40;62.50;;;;;;2537885;53;20963;-69
2023/08/20 06:28:48;;;;;;;5.87;3.85;;;26.40;62.60;;;;;;2537005;54;20999;-71
2023/08/20 06:31:16;;;;;;;4.93;3.72;;;26.40;62.60;;;;;;2511421;54;20962;-70
2023/08/20 06:33:42;;;;;;;5.93;3.90;;;26.40;62.70;;;;;;2511900;54;20923;-70
2023/08/20 06:36:10;;;;;;;5.85;4.30;;;26.40;62.70;;;;;;2274880;54;20926;-71
2023/08/20 06:38:36;;;;;;;4.82;3.87;;;26.40;62.80;;;;;;2522158;53;20938;-69
2023/08/20 06:41:02;;;;;;;5.47;4.40;;;26.40;62.80;;;;;;2511989;54;21949;-71
2023/08/20 06:43:32;;;;;;;5.25;4.07;;;26.40;62.90;;;;;;2517716;54;20963;-71
2023/08/20 06:45:58;;;;;;;5.50;3.87;;;26.50;63.10;;;;;;2303909;54;21851;-68
2023/08/20 06:48:26;;;;;;;5.25;4.12;;;26.50;63.00;;;;;;2315011;54;20997;-71
2023/08/20 06:50:53;;;;;;;7.60;3.78;;;26.50;63.80;;;;;;2314668;55;20956;-69
2023/08/20 06:53:20;;;;;;;6.10;3.97;;;26.50;63.10;;;;;;2562031;53;20984;-68
2023/08/20 06:55:47;;;;;;;6.03;4.25;;;26.50;63.20;;;;;;2587903;53;20929;-71
2023/08/20 06:58:16;;;;;;;6.95;3.92;;;26.50;63.30;;;;;;2588522;53;20992;-70
2023/08/20 07:00:43;;;;;;;6.97;3.92;;;26.60;63.40;;;;;;2341601;54;20985;-68
2023/08/20 07:03:10;;;;;;;4.55;3.72;;;26.70;63.50;;;;;;2341846;55;20960;-71
2023/08/20 07:05:36;;;;;;;5.65;4.30;;;26.70;63.60;;;;;;2341882;54;20917;-70
2023/08/20 07:08:06;;;;;;;4.85;3.65;;;26.70;63.60;;;;;;2559806;53;20948;-68
2023/08/20 07:10:32;;;;;;;5.62;3.87;;;26.80;63.60;;;;;;2342154;55;21500;-72
2023/08/20 07:13:01;;;;;;;4.78;3.65;;;26.80;63.60;;;;;;2588274;53;20905;-69
2023/08/20 07:15:27;;;;;;;5.20;4.00;;;26.90;63.50;;;;;;2588980;53;20937;-70
2023/08/20 07:18:04;;;;;;;5.45;3.83;;;26.90;63.50;;;;;;2342191;54;21008;-72
2023/08/20 07:20:30;;;;;;;5.60;3.65;;;26.90;63.60;;;;;;2326880;54;20995;-72
2023/08/20 07:22:56;;;;;;;5.97;4.53;;;27.00;63.60;;;;;;2582658;53;20936;-71
2023/08/20 07:25:24;;;;;;;6.82;4.60;;;27.00;63.60;;;;;;2342601;54;21390;-69
2023/08/20 07:27:50;;;;;;;6.50;4.87;;;27.10;63.80;;;;;;2342610;55;20952;-71
2023/08/20 07:30:18;;;;;;;5.90;4.68;;;27.10;63.70;;;;;;2569448;53;21432;-71
2023/08/20 07:32:44;;;;;;;8.50;4.70;;;27.20;63.70;;;;;;2334493;54;21008;-70
2023/08/20 07:35:10;;;;;;;5.60;4.12;;;27.20;63.80;;;;;;2587485;53;20944;-71
2023/08/20 07:37:39;;;;;;;8.65;5.05;;;27.30;63.80;;;;;;2341291;55;20925;-70
2023/08/20 07:40:09;;;;;;;6.12;4.62;;;27.30;63.80;;;;;;2587271;53;20940;-70
2023/08/20 07:42:36;;;;;;;6.15;4.60;;;27.40;64.00;;;;;;2341188;55;21008;-70
2023/08/20 07:45:03;;;;;;;5.35;4.50;;;27.40;63.90;;;;;;2341238;54;20948;-70
2023/08/20 07:47:29;;;;;;;7.07;4.03;;;27.50;63.90;;;;;;2587668;53;20905;-70
2023/08/20 07:49:57;;;;;;;5.40;4.22;;;27.60;64.00;;;;;;2340894;55;20928;-69
2023/08/20 07:52:24;;;;;;;5.72;4.28;;;27.60;64.00;;;;;;2581009;53;20964;-72
2023/08/20 07:54:50;;;;;;;5.25;4.15;;;27.70;64.00;;;;;;2565151;53;20940;-71
2023/08/20 07:57:16;;;;;;;5.60;4.30;;;27.70;63.90;;;;;;2341376;55;21118;-70
2023/08/20 07:59:43;;;;;;;5.45;4.22;;;27.80;63.90;;;;;;2340995;54;20969;-70
2023/08/20 08:02:10;;;;;;;5.87;4.70;;;27.90;63.90;;;;;;2340768;54;20908;-69
2023/08/20 08:04:37;;;;;;;5.75;4.20;;;27.90;63.80;;;;;;2587087;53;21529;-69
2023/08/20 08:07:06;;;;;;;6.82;4.18;;;28.00;63.80;;;;;;2340293;54;20977;-72
2023/08/20 08:09:32;;;;;;;5.80;4.37;;;28.10;63.80;;;;;;2559626;53;21030;-70
2023/08/20 08:12:01;;;;;;;6.28;4.40;;;28.10;63.60;;;;;;2341097;55;20916;-71
2023/08/20 08:14:27;;;;;;;6.53;4.35;;;28.20;63.60;;;;;;2341885;55;21052;-72
2023/08/20 08:16:54;;;;;;;5.32;4.57;;;28.20;63.60;;;;;;2587144;53;20916;-69
2023/08/20 08:19:20;;;;;;;6.05;4.65;;;28.30;63.60;;;;;;2340266;54;21063;-71
2023/08/20 08:21:49;;;;;;;5.68;4.47;;;28.40;63.60;;;;;;2335340;54;20991;-69
2023/08/20 08:24:15;;;;;;;4.93;4.30;;;28.40;63.60;;;;;;2328200;54;20953;-70
2023/08/20 08:26:43;;;;;;;4.95;4.12;;;28.50;63.70;;;;;;2340942;55;20948;-71
2023/08/20 08:29:09;;;;;;;6.30;4.75;;;28.50;63.70;;;;;;2587334;53;20953;-71
2023/08/20 08:31:36;;;;;;;5.53;4.28;;;28.60;63.60;;;;;;2340862;55;21719;-72
2023/08/20 08:34:03;;;;;;;5.85;4.37;;;28.70;63.50;;;;;;2586883;53;21428;-72
2023/08/20 08:36:29;;;;;;;6.68;4.50;;;28.70;63.40;;;;;;2580163;53;20967;-69
2023/08/20 08:38:56;;;;;;;4.97;4.05;;;28.80;63.30;;;;;;2323211;54;22344;-70
2023/08/20 08:41:25;;;;;;;5.75;4.62;;;28.80;63.30;;;;;;2340935;55;21457;-71
2023/08/20 08:43:51;;;;;;;5.20;4.10;;;28.90;63.40;;;;;;2340261;55;22385;-72
2023/08/20 08:46:18;;;;;;;6.28;5.03;;;29.00;63.30;;;;;;2587203;53;20925;-70
2023/08/20 08:48:47;;;;;;;5.53;4.65;;;29.00;63.20;;;;;;2587034;53;20980;-72
2023/08/20 08:51:13;;;;;;;6.75;4.50;;;29.10;63.20;;;;;;2586885;53;20933;-71
2023/08/20 08:53:41;;;;;;;5.47;4.57;;;29.10;62.90;;;;;;2586945;53;20985;-71
2023/08/20 08:56:08;;;;;;;5.60;4.68;;;29.20;62.90;;;;;;2341370;54;20944;-72
2023/08/20 08:58:34;;;;;;;5.72;4.78;;;29.20;62.80;;;;;;2341919;55;20932;-72
2023/08/20 09:01:00;;;;;;;5.30;4.28;;;29.30;62.80;;;;;;2586674;53;20983;-71
2023/08/20 09:03:30;;;;;;;6.87;4.75;;;29.30;62.60;;;;;;2586178;53;20929;-69
2023/08/20 09:06:03;;;;;;;6.12;4.57;;;29.40;62.70;;;;;;2341317;55;20960;-71
2023/08/20 09:08:30;;;;;;;5.07;4.25;;;29.40;62.60;;;;;;2341167;54;20945;-70
2023/08/20 09:10:57;;;;;;;6.00;4.05;;;29.50;62.60;;;;;;2340161;55;20925;-70
2023/08/20 09:13:37;;;;;;;5.53;4.53;;;29.50;62.50;;;;;;2587024;53;21449;-71
2023/08/20 09:16:07;;;;;;;5.32;4.50;;;29.60;62.70;;;;;;2342105;55;20960;-71
2023/08/20 09:18:46;;;;;;;5.93;4.85;;;29.60;62.40;;;;;;2320345;54;20971;-70
2023/08/20 09:21:13;;;;;;;6.65;4.68;;;29.70;62.50;;;;;;2568508;53;20992;-71
2023/08/20 09:23:39;;;;;;;5.93;4.47;;;29.70;62.40;;;;;;2587115;53;20909;-70
2023/08/20 09:26:06;;;;;;;7.10;4.93;;;29.80;62.40;;;;;;2587324;53;20933;-70
2023/08/20 09:28:42;;;;;;;5.70;4.53;;;29.80;62.50;;;;;;2587140;53;20936;-70
2023/08/20 09:31:08;;;;;;;5.95;4.65;;;29.90;62.60;;;;;;2587570;53;21679;-72
2023/08/20 09:33:36;;;;;;;4.82;4.25;;;29.90;62.40;;;;;;2587560;53;20916;-72
2023/08/20 09:36:04;;;;;;;6.53;5.18;;;30.00;62.40;;;;;;2586397;53;21518;-73
2023/08/20 09:38:39;;;;;;;7.32;4.50;;;30.00;62.30;;;;;;2340162;54;20953;-72
2023/08/20 09:41:06;;;;;;;5.68;4.72;;;30.10;62.30;;;;;;2560403;53;21048;-72
2023/08/20 09:43:32;;;;;;;5.40;4.68;;;30.20;62.20;;;;;;2341009;54;20988;-72
2023/08/20 09:45:59;;;;;;;5.20;4.32;;;30.20;62.10;;;;;;2586836;53;21049;-72
2023/08/20 09:48:26;;;;;;;5.30;4.35;;;30.30;62.10;;;;;;2585915;53;20924;-72
2023/08/20 09:50:52;;;;;;;5.87;4.20;;;30.30;62.00;;;;;;2569796;53;21091;-70
2023/08/20 09:53:42;;;;;;;5.30;3.87;;;30.40;61.90;;;;;;2568845;53;21357;-69
2023/08/20 09:56:30;;;;;;;4.75;3.80;;;30.40;61.30;;;;;;2566597;53;21024;-71
2023/08/20 09:59:01;;;;;;;5.07;4.05;;;30.50;61.10;;;;;;2570674;53;21040;-70
2023/08/20 10:01:30;;;;;;;4.93;3.62;;;30.60;61.40;;;;;;2343933;54;21013;-71
2023/08/20 10:03:56;;;;;;;5.25;4.20;;;30.60;61.30;;;;;;2328344;54;20961;-72
2023/08/20 10:06:23;;;;;;;6.57;4.20;;;30.70;61.10;;;;;;2586513;53;21463;-72
2023/08/20 10:08:53;;;;;;;4.70;3.78;;;30.70;60.80;;;;;;2571511;53;20968;-71
2023/08/20 10:11:19;;;;;;;6.35;4.00;;;30.80;61.40;;;;;;2333898;54;20945;-71
2023/08/20 10:13:45;;;;;;;5.15;4.07;;;30.80;60.30;;;;;;2320003;54;20937;-71
2023/08/20 10:16:13;;;;;;;5.72;3.78;;;30.90;60.20;;;;;;2588380;53;20957;-71
2023/08/20 10:18:39;;;;;;;4.50;3.83;;;30.90;60.10;;;;;;2587332;53;21004;-71
2023/08/20 10:21:09;;;;;;;5.00;3.95;;;31.00;60.10;;;;;;2588415;53;20994;-71
2023/08/20 10:23:39;;;;;;;4.37;3.80;;;31.00;60.00;;;;;;2587920;53;21008;-69
2023/08/20 10:26:13;;;;;;;5.53;4.30;;;31.00;60.00;;;;;;2588590;53;21057;-71
2023/08/20 10:28:40;;;;;;;5.45;3.90;;;31.10;59.80;;;;;;2343104;54;21008;-71
2023/08/20 10:31:11;;;;;;;5.57;4.28;;;31.10;59.80;;;;;;2342012;55;21386;-72
2023/08/20 10:33:50;;;;;;;5.57;3.60;;;31.20;59.80;;;;;;2549445;53;21418;-72
2023/08/20 10:36:18;;;;;;;6.05;3.90;;;31.20;59.60;;;;;;2342172;54;21290;-71
2023/08/20 10:38:45;;;;;;;4.70;3.72;;;31.30;59.80;;;;;;2587835;53;21003;-69
2023/08/20 10:41:16;;;;;;;6.10;4.03;;;31.30;59.80;;;;;;2581045;53;20960;-69
2023/08/20 10:43:47;;;;;;;5.15;3.92;;;31.30;59.70;;;;;;2321853;54;20924;-72
2023/08/20 10:46:21;;;;;;;5.53;3.78;;;31.40;59.40;;;;;;2587344;53;20937;-69
2023/08/20 10:48:55;;;;;;;6.60;3.70;;;31.50;59.60;;;;;;2587594;53;20905;-71
2023/08/20 10:51:28;;;;;;;5.45;3.30;;;31.50;59.50;;;;;;2587223;53;20988;-70
2023/08/20 10:54:14;;;;;;;4.55;3.20;;;31.60;59.40;;;;;;2341768;55;20953;-70
2023/08/20 10:56:48;;;;;;;4.78;3.90;;;31.60;58.90;;;;;;2341709;54;20989;-70
2023/08/20 10:59:28;;;;;;;8.10;4.25;;;31.60;58.80;;;;;;2554997;53;21695;-70
2023/08/20 11:01:55;;;;;;;5.30;3.28;;;31.70;58.60;;;;;;2341492;55;21004;-71
2023/08/20 11:04:22;;;;;;;5.15;3.50;;;31.80;58.80;;;;;;2341361;55;21000;-71
2023/08/20 11:06:54;;;;;;;5.18;4.07;;;31.80;58.60;;;;;;2587091;53;21013;-71
2023/08/20 11:09:22;;;;;;;4.45;3.45;;;31.80;58.30;;;;;;2587578;53;20993;-70
2023/08/20 11:11:52;;;;;;;4.82;3.40;;;31.90;58.20;;;;;;2342219;54;20968;-70
2023/08/20 11:14:19;;;;;;;6.28;3.37;;;31.90;57.80;;;;;;2341099;55;20957;-71
2023/08/20 11:16:48;;;;;;;4.12;3.30;;;31.90;57.80;;;;;;2325193;54;20968;-70
2023/08/20 11:19:18;;;;;;;4.12;3.00;;;31.90;57.80;;;;;;2335996;54;20940;-71
2023/08/20 11:21:45;;;;;;;5.07;3.37;;;32.00;57.70;;;;;;2342482;55;20956;-71
2023/08/20 11:24:12;;;;;;;5.45;3.12;;;32.00;57.50;;;;;;2342290;55;20917;-70
2023/08/20 11:26:39;;;;;;;3.95;3.10;;;32.10;57.50;;;;;;2341225;55;20989;-69
2023/08/20 11:29:12;;;;;;;4.97;3.17;;;32.10;57.40;;;;;;2588354;53;20981;-70
2023/08/20 11:31:38;;;;;;;4.70;2.87;;;32.10;57.30;;;;;;2587761;53;20921;-69
2023/08/20 11:34:05;;;;;;;4.05;3.10;;;32.10;57.20;;;;;;2588532;53;20945;-72
2023/08/20 11:36:31;;;;;;;4.87;3.25;;;32.20;57.10;;;;;;2342503;55;21810;-70
2023/08/20 11:38:58;;;;;;;4.50;3.10;;;32.30;57.00;;;;;;2317565;54;21920;-71
2023/08/20 11:41:24;;;;;;;4.40;3.30;;;32.30;57.70;;;;;;2341449;54;21032;-71
2023/08/20 11:43:52;;;;;;;4.28;3.05;;;32.30;57.10;;;;;;2587916;53;21362;-69
2023/08/20 11:46:20;;;;;;;4.15;3.22;;;32.40;57.10;;;;;;2587747;53;20968;-69
2023/08/20 11:52:21;;;;;;;4.50;3.35;;;32.50;57.10;;;;;;2339077;55;20964;-72
2023/08/20 11:54:47;;;;;;;4.97;2.80;;;32.60;57.00;;;;;;2563874;53;20949;-70
2023/08/20 11:57:14;;;;;;;4.68;3.00;;;32.70;57.10;;;;;;2555559;53;21012;-71
2023/08/20 11:59:40;;;;;;;4.53;3.28;;;32.70;56.90;;;;;;2582008;53;21071;-70
2023/08/20 12:02:09;;;;;;;4.20;3.12;;;32.70;56.80;;;;;;2585567;53;21009;-70
2023/08/20 12:04:35;;;;;;;6.70;3.37;;;32.80;56.60;;;;;;2587196;53;21711;-71
2023/08/20 12:07:08;;;;;;;5.97;3.05;;;32.90;56.80;;;;;;2343203;54;20996;-71
2023/08/20 12:09:35;;;;;;;4.55;3.35;;;32.90;56.40;;;;;;2340803;55;20992;-71
2023/08/20 12:12:01;;;;;;;5.62;3.25;;;32.90;56.40;;;;;;2342189;55;21767;-71
2023/08/20 12:14:27;;;;;;;4.03;3.05;;;33.00;56.20;;;;;;2581868;53;20928;-71
2023/08/20 12:16:54;;;;;;;5.20;3.53;;;33.00;56.00;;;;;;2340828;54;21296;-71
2023/08/20 12:19:23;;;;;;;5.28;3.58;;;33.10;55.90;;;;;;2342320;55;20945;-68
2023/08/20 12:21:49;;;;;;;4.25;3.10;;;33.10;55.60;;;;;;2309353;55;20921;-71
2023/08/20 12:24:15;;;;;;;5.00;3.65;;;33.10;55.60;;;;;;2310707;55;21291;-72
2023/08/20 12:26:42;;;;;;;4.40;3.37;;;33.20;55.50;;;;;;2309896;55;21885;-71
2023/08/20 12:29:09;;;;;;;4.87;2.90;;;33.30;55.30;;;;;;2310278;54;20917;-70
2023/08/20 12:31:35;;;;;;;4.85;3.28;;;33.30;55.10;;;;;;2309817;55;21606;-70
2023/08/20 12:34:02;;;;;;;5.97;3.22;;;33.30;54.90;;;;;;2310648;54;20945;-70
2023/08/20 12:36:28;;;;;;;4.50;2.83;;;33.40;55.00;;;;;;2547849;54;20901;-70
2023/08/20 12:38:55;;;;;;;4.80;3.45;;;33.40;54.80;;;;;;2304867;54;21764;-70
2023/08/20 12:41:21;;;;;;;5.53;3.33;;;33.40;55.40;;;;;;2310018;55;21684;-70
2023/08/20 12:43:48;;;;;;;4.45;3.08;;;33.40;54.70;;;;;;2309335;55;20930;-71
2023/08/20 12:46:15;;;;;;;4.53;3.22;;;33.50;54.60;;;;;;2305845;54;21433;-72
2023/08/20 12:48:43;;;;;;;3.80;3.15;;;33.50;54.70;;;;;;2309163;55;20953;-69
2023/08/20 12:51:13;;;;;;;4.72;2.92;;;33.60;54.90;;;;;;2310212;55;20917;-71
2023/08/20 12:53:39;;;;;;;5.82;3.05;;;33.60;54.60;;;;;;2542286;54;21668;-70
2023/08/20 12:56:07;;;;;;;6.22;3.62;;;33.70;54.40;;;;;;2545238;54;20909;-70
2023/08/20 12:58:33;;;;;;;4.85;3.72;;;33.70;54.20;;;;;;2309252;55;21376;-70
2023/08/20 13:00:59;;;;;;;4.62;3.50;;;33.70;54.20;;;;;;2549003;54;21684;-72